Time;durP1;ratioP1;P1;durP2;ratioP2;P2;SDS_P1;SDS_P2;PMS_P1;PMS_P2;Temp;Humidity;BMP_temperature;BMP_pressure;BME280_temperature;BME280_humidity;BME280_pressure;Samples;Min_cycle;Max_cycle;Signal;HPM_P1;HPM_P2
2023/03/10 00:02:23;;;;;;;15.07;7.93;;;;;;;10.77;70.85;96923.09;10209864;28;20093;-55
2023/03/10 00:07:22;;;;;;;13.90;8.75;;;;;;;10.69;71.69;96920.63;10215494;28;20077;-55
2023/03/10 00:12:21;;;;;;;14.57;8.77;;;;;;;10.59;73.17;96916.47;10204362;28;20061;-55
2023/03/10 00:17:20;;;;;;;12.77;7.65;;;;;;;10.07;75.50;96917.16;10206006;28;20077;-55
2023/03/10 00:22:19;;;;;;;8.98;5.82;;;;;;;10.12;74.52;96912.78;10210281;28;20054;-54
2023/03/10 00:27:18;;;;;;;9.82;5.90;;;;;;;9.95;75.94;96887.91;10205550;28;20121;-54
2023/03/10 00:32:18;;;;;;;10.50;6.22;;;;;;;10.10;75.09;96917.13;10209940;28;20114;-55
2023/03/10 00:37:17;;;;;;;10.98;6.63;;;;;;;10.12;74.71;96894.63;10212952;28;20066;-55
2023/03/10 00:42:16;;;;;;;11.07;6.18;;;;;;;10.11;75.01;96919.69;10216935;28;20150;-55
2023/03/10 00:47:15;;;;;;;10.85;7.15;;;;;;;9.98;75.30;96900.00;10224777;28;20066;-55
2023/03/10 00:52:14;;;;;;;15.25;8.73;;;;;;;10.02;75.21;96906.84;10210958;28;20027;-55
2023/03/10 00:57:13;;;;;;;12.00;7.28;;;;;;;9.85;75.79;96903.63;10210425;28;20630;-55
2023/03/10 01:02:12;;;;;;;12.57;7.50;;;;;;;9.80;75.44;96893.31;10212451;28;20126;-55
2023/03/10 01:07:11;;;;;;;12.02;8.57;;;;;;;9.54;77.48;96898.78;10224541;28;20118;-55
2023/03/10 01:12:10;;;;;;;15.65;10.80;;;;;;;9.09;80.31;96898.31;10216445;28;20057;-55
2023/03/10 01:17:09;;;;;;;22.50;10.88;;;;;;;9.11;80.31;96904.31;10224485;28;20035;-55
2023/03/10 01:22:08;;;;;;;23.17;14.38;;;;;;;9.01;80.41;96908.72;10216561;28;20097;-54
2023/03/10 01:27:07;;;;;;;19.13;12.00;;;;;;;9.02;80.25;96912.16;10222179;28;20054;-54
2023/03/10 01:32:06;;;;;;;18.13;11.40;;;;;;;9.07;79.45;96900.06;10214801;28;20018;-55
2023/03/10 01:37:05;;;;;;;;;;;;;;;9.05;78.81;96905.25;10231198;28;20063;-55
2023/03/10 01:42:04;;;;;;;21.50;11.68;;;;;;;9.02;78.53;96899.22;10209657;28;19922;-54
2023/03/10 01:47:03;;;;;;;20.58;12.18;;;;;;;8.92;79.22;96896.72;10208554;28;20501;-55
2023/03/10 01:52:15;;;;;;;26.15;14.88;;;;;;;8.90;79.53;96902.78;10216102;28;20046;-54
2023/03/10 01:57:17;;;;;;;20.30;12.32;;;;;;;8.86;79.69;96909.72;10224793;28;20066;-55
2023/03/10 02:02:17;;;;;;;22.50;12.43;;;;;;;8.76;80.42;96920.13;10208495;28;20685;-55
2023/03/10 02:07:20;;;;;;;20.05;12.90;;;;;;;8.53;80.75;96913.41;10221463;28;20070;-54
2023/03/10 02:12:19;;;;;;;21.95;13.93;;;;;;;8.44;80.92;96893.63;10214578;28;20059;-54
2023/03/10 02:17:20;;;;;;;;;;;;;;;8.37;81.27;96915.22;10222352;28;20481;-54
2023/03/10 02:22:19;;;;;;;23.90;15.15;;;;;;;8.20;82.71;96905.00;10224606;28;20025;-54
2023/03/10 02:27:24;;;;;;;24.27;16.77;;;;;;;8.14;83.06;96905.00;10216299;28;20054;-54
2023/03/10 02:32:24;;;;;;;23.73;14.45;;;;;;;8.14;82.49;96899.00;10218470;28;20901;-55
2023/03/10 02:37:29;;;;;;;18.00;11.35;;;;;;;8.24;81.80;96905.81;10218782;28;20150;-54
2023/03/10 02:42:34;;;;;;;19.45;11.85;;;;;;;8.29;81.53;96898.88;10216178;28;20054;-54
2023/03/10 02:47:33;;;;;;;18.52;11.48;;;;;;;8.30;81.38;96880.81;10216480;28;20121;-55
2023/03/10 02:52:58;;;;;;;17.70;11.02;;;;;;;8.30;81.72;96890.28;10219899;28;20020;-54
2023/03/10 02:58:01;;;;;;;18.20;10.85;;;;;;;8.36;81.09;96890.22;10204351;28;20798;-55
2023/03/10 03:03:00;;;;;;;19.63;11.80;;;;;;;8.34;80.92;96876.47;10204480;28;20077;-54
2023/03/10 03:07:59;;;;;;;15.65;11.60;;;;;;;8.23;81.25;96865.34;10202770;28;20036;-54
2023/03/10 03:12:58;;;;;;;18.00;10.55;;;;;;;8.34;81.34;96876.47;10212564;28;20485;-55
2023/03/10 03:17:57;;;;;;;21.20;13.80;;;;;;;8.15;81.99;96865.38;10204499;28;20421;-54
2023/03/10 03:22:58;;;;;;;23.55;13.18;;;;;;;8.08;81.68;96882.66;10213504;28;20362;-54
2023/03/10 03:27:56;;;;;;;20.13;12.85;;;;;;;8.13;81.65;96880.06;10202962;28;20532;-54
2023/03/10 03:32:56;;;;;;;22.35;12.45;;;;;;;8.12;81.51;96886.06;10212786;28;20030;-54
2023/03/10 03:37:56;;;;;;;19.33;12.32;;;;;;;8.11;81.96;96899.88;10220115;28;20102;-54
2023/03/10 03:42:55;;;;;;;22.13;13.27;;;;;;;8.07;81.88;96883.50;10206288;28;20161;-54
2023/03/10 03:47:54;;;;;;;20.75;12.48;;;;;;;8.05;82.25;96897.31;10204525;28;20050;-54
2023/03/10 03:52:53;;;;;;;;;;;;;;;8.14;81.74;96888.66;10226039;28;20065;-54
2023/03/10 03:57:52;;;;;;;23.42;12.70;;;;;;;8.19;81.82;96887.75;10204138;28;19914;-55
2023/03/10 04:02:51;;;;;;;17.02;11.43;;;;;;;8.21;81.60;96885.16;10205527;28;20029;-54
2023/03/10 04:07:51;;;;;;;25.05;14.40;;;;;;;8.08;82.59;96890.41;10204327;28;20038;-54
2023/03/10 04:12:50;;;;;;;21.55;14.20;;;;;;;7.75;82.30;96837.16;10218762;28;20070;-54
2023/03/10 04:17:49;;;;;;;19.45;12.32;;;;;;;8.16;82.49;96886.94;10211352;28;20057;-55
2023/03/10 04:22:48;;;;;;;24.52;13.10;;;;;;;8.05;82.81;96885.25;10220155;28;20038;-54
2023/03/10 04:27:47;;;;;;;19.35;12.05;;;;;;;7.99;81.75;96848.22;10211511;28;20425;-55
2023/03/10 04:32:45;;;;;;;18.92;13.00;;;;;;;8.18;81.96;96875.72;10219585;28;20105;-55
2023/03/10 04:37:44;;;;;;;21.13;10.95;;;;;;;8.21;82.02;96869.66;10211651;28;20423;-54
2023/03/10 04:42:43;;;;;;;39.80;20.30;;;;;;;8.18;82.49;96864.53;10219150;28;20070;-54
2023/03/10 04:47:42;;;;;;;28.27;19.15;;;;;;;8.02;82.03;96854.25;10209106;28;20117;-54
2023/03/10 04:52:43;;;;;;;32.15;20.38;;;;;;;8.08;82.83;96862.00;10222867;28;20042;-55
2023/03/10 04:57:42;;;;;;;27.33;17.85;;;;;;;8.00;82.63;96847.38;10217126;28;20074;-54
2023/03/10 05:02:41;;;;;;;48.90;30.83;;;;;;;7.66;82.76;96796.78;10218491;28;20098;-54
2023/03/10 05:07:40;;;;;;;32.70;19.60;;;;;;;7.52;83.70;96772.75;10225912;28;20054;-54
2023/03/10 05:12:41;;;;;;;41.97;25.27;;;;;;;7.57;83.76;96757.19;10211440;28;20074;-54
2023/03/10 05:17:40;;;;;;;47.75;31.15;;;;;;;8.12;83.96;96841.28;10225393;28;20070;-54
2023/03/10 05:22:39;;;;;;;50.10;31.90;;;;;;;8.28;83.43;96829.97;10217514;28;20061;-54
2023/03/10 05:27:38;;;;;;;;;;;;;;;8.33;82.73;96817.03;10225487;28;20072;-55
2023/03/10 05:32:36;;;;;;;52.95;33.47;;;;;;;8.31;82.40;96822.19;10210540;28;20273;-54
2023/03/10 05:37:38;;;;;;;35.33;19.65;;;;;;;7.56;81.46;96699.56;10232596;28;20117;-54
2023/03/10 05:42:37;;;;;;;32.38;18.38;;;;;;;8.44;81.54;96816.09;10216830;28;20058;-54
2023/03/10 05:47:36;;;;;;;;;;;;;;;8.48;81.38;96817.78;10217224;28;20085;-55
2023/03/10 05:52:37;;;;;;;39.65;22.42;;;;;;;8.57;81.30;96821.16;10216143;28;19997;-55
2023/03/10 05:57:36;;;;;;;28.85;16.05;;;;;;;8.64;80.70;96817.63;10220447;28;20114;-55
2023/03/10 06:02:37;;;;;;;21.75;13.77;;;;;;;8.69;80.89;96805.53;10216837;28;20041;-55
2023/03/10 06:07:37;;;;;;;25.20;14.65;;;;;;;8.87;81.09;96799.31;10222908;28;20126;-54
2023/03/10 06:12:35;;;;;;;;;;;;;;;9.11;80.96;96790.44;10214772;28;20078;-55
2023/03/10 06:17:34;;;;;;;19.30;11.60;;;;;;;9.44;79.48;96785.78;10222878;28;19929;-55
2023/03/10 06:22:33;;;;;;;28.70;18.85;;;;;;;9.50;78.89;96793.50;10213974;28;20420;-54
2023/03/10 06:27:33;;;;;;;23.20;16.45;;;;;;;9.77;78.07;96795.75;10226746;28;20023;-54
2023/03/10 06:32:33;;;;;;;22.20;14.63;;;;;;;9.76;78.25;96794.00;10215833;28;20121;-55
2023/03/10 06:37:33;;;;;;;24.58;11.75;;;;;;;9.53;78.05;96764.97;10222730;28;20543;-55
2023/03/10 06:42:31;;;;;;;;;;;;;;;9.78;78.74;96800.03;10213191;28;20130;-55
2023/03/10 06:47:30;;;;;;;19.08;10.75;;;;;;;10.09;78.38;96796.16;10219900;28;19922;-55
2023/03/10 06:52:31;;;;;;;15.85;11.82;;;;;;;10.34;77.78;96774.19;10216470;28;20556;-55
2023/03/10 06:57:30;;;;;;;18.42;11.90;;;;;;;10.76;76.39;96804.63;10223912;28;20062;-55
2023/03/10 07:02:29;;;;;;;18.52;12.75;;;;;;;11.09;75.36;96789.38;10211564;28;20034;-55
2023/03/10 07:07:28;;;;;;;26.95;15.50;;;;;;;11.28;72.84;96789.88;10220463;28;20037;-55
2023/03/10 07:12:27;;;;;;;27.67;16.20;;;;;;;11.62;72.05;96788.31;10221769;28;20047;-55
2023/03/10 07:17:26;;;;;;;21.02;12.02;;;;;;;11.87;71.22;96787.78;10221395;28;20508;-55
2023/03/10 07:22:25;;;;;;;41.05;23.05;;;;;;;11.69;71.99;96778.66;10206866;28;20032;-55
2023/03/10 07:27:24;;;;;;;18.75;11.43;;;;;;;11.65;71.95;96766.63;10220721;28;20054;-55
2023/03/10 07:32:23;;;;;;;24.85;14.95;;;;;;;11.74;71.73;96757.78;10205613;28;20133;-55
2023/03/10 07:37:22;;;;;;;17.58;10.43;;;;;;;12.02;71.89;96758.88;10206480;28;20049;-55
2023/03/10 07:42:21;;;;;;;;;;;;;;;12.21;70.86;96759.28;10220488;28;20039;-55
2023/03/10 07:47:20;;;;;;;15.90;11.15;;;;;;;12.19;71.20;96740.25;10204972;28;19996;-55
2023/03/10 07:52:19;;;;;;;14.95;9.35;;;;;;;12.25;71.03;96747.94;10204681;28;20039;-55
2023/03/10 07:57:18;;;;;;;;;;;;;;;12.38;71.49;96735.50;10205162;28;20046;-55
2023/03/10 08:02:17;;;;;;;16.50;9.63;;;;;;;12.77;70.88;96724.13;10209323;28;19980;-55
2023/03/10 08:07:15;;;;;;;;;;;;;;;13.15;70.03;96713.53;10219272;28;20509;-56
2023/03/10 08:12:14;;;;;;;13.73;10.30;;;;;;;13.69;67.46;96698.09;10211601;28;20315;-56
2023/03/10 08:17:13;;;;;;;;;;;;;;;14.02;65.45;96692.75;10205022;28;20030;-55
2023/03/10 08:22:12;;;;;;;18.67;12.25;;;;;;;14.18;64.65;96657.44;10211301;28;19969;-55
2023/03/10 08:27:11;;;;;;;;;;;;;;;14.48;63.17;96665.16;10204092;28;20051;-55
2023/03/10 08:32:10;;;;;;;19.73;15.00;;;;;;;14.93;61.61;96651.41;10211091;28;19922;-56
2023/03/10 08:37:09;;;;;;;;;;;;;;;15.19;60.53;96638.25;10205290;28;20118;-55
2023/03/10 08:42:12;;;;;;;14.77;10.25;;;;;;;15.48;59.37;96622.34;10212460;28;20013;-55
2023/03/10 08:47:12;;;;;;;17.60;10.15;;;;;;;15.80;58.55;96618.50;10223874;28;20073;-55
2023/03/10 08:52:11;;;;;;;21.08;11.20;;;;;;;16.07;56.45;96591.22;10211143;28;20058;-55
2023/03/10 08:57:09;;;;;;;14.55;9.55;;;;;;;16.48;53.37;96591.22;10206186;28;20066;-55
2023/03/10 09:02:13;;;;;;;15.65;9.63;;;;;;;17.09;52.16;96592.94;10217370;28;20130;-55
2023/03/10 09:07:12;;;;;;;15.98;8.50;;;;;;;17.60;51.32;96582.69;10210729;28;20066;-55
2023/03/10 09:12:11;;;;;;;17.48;7.85;;;;;;;18.06;49.30;96590.13;10217446;28;20133;-56
2023/03/10 09:17:10;;;;;;;13.85;2.75;;;;;;;18.26;43.87;96568.97;10220418;28;20070;-55
2023/03/10 09:22:09;;;;;;;3.20;2.13;;;;;;;18.63;43.55;96574.97;10210115;28;20023;-56
2023/03/10 09:27:08;;;;;;;7.75;2.10;;;;;;;18.76;41.19;96569.94;10210751;28;20062;-56
2023/03/10 09:32:07;;;;;;;11.98;3.53;;;;;;;18.60;41.44;96576.00;10210174;28;20023;-56
2023/03/10 09:37:06;;;;;;;4.68;2.22;;;;;;;18.66;41.86;96568.72;10210466;28;20066;-56
2023/03/10 09:42:23;;;;;;;7.75;2.63;;;;;;;18.58;41.64;96559.44;10212134;28;20050;-54
2023/03/10 09:47:43;;;;;;;6.68;2.42;;;;;;;18.50;41.61;96555.50;10213024;28;20126;-55
2023/03/10 09:53:02;;;;;;;7.85;1.92;;;;;;;18.21;41.91;96547.38;10210839;28;20619;-55
2023/03/10 09:58:02;;;;;;;7.70;2.33;;;;;;;18.10;42.14;96540.00;10206317;28;20075;-55
2023/03/10 10:03:22;;;;;;;8.73;2.10;;;;;;;18.04;42.07;96532.47;10211097;28;20122;-55
2023/03/10 10:08:27;;;;;;;8.43;2.05;;;;;;;17.67;42.29;96515.06;10220268;28;20081;-55
2023/03/10 10:13:29;;;;;;;6.15;1.92;;;;;;;17.65;42.68;96496.75;10202844;28;20130;-55
2023/03/10 10:18:32;;;;;;;5.00;2.47;;;;;;;17.59;43.31;96486.59;10203284;28;20074;-55
2023/03/10 10:23:43;;;;;;;6.57;2.00;;;;;;;17.53;42.70;96486.88;10220957;28;20588;-55
2023/03/10 10:28:43;;;;;;;7.45;2.10;;;;;;;17.59;43.50;96465.59;10204128;28;20077;-56
2023/03/10 10:33:57;;;;;;;11.45;2.65;;;;;;;17.68;43.12;96477.38;10209358;28;20085;-54
2023/03/10 10:38:56;;;;;;;6.53;2.40;;;;;;;17.77;43.21;96469.94;10203839;28;20153;-54
2023/03/10 10:44:06;;;;;;;3.08;1.65;;;;;;;17.83;42.57;96449.56;10211959;28;20086;-54
2023/03/10 10:49:18;;;;;;;3.33;1.67;;;;;;;18.07;42.73;96471.09;10231032;28;20521;-55
2023/03/10 10:54:26;;;;;;;5.20;2.35;;;;;;;18.07;42.69;96455.34;10211332;28;20085;-54
2023/03/10 10:59:31;;;;;;;3.00;2.00;;;;;;;18.11;41.99;96451.63;10231585;28;20074;-54
2023/03/10 11:04:43;;;;;;;4.15;2.15;;;;;;;18.10;42.47;96445.50;10208955;28;20146;-55
2023/03/10 11:09:42;;;;;;;12.13;2.70;;;;;;;18.08;42.72;96434.25;10217667;28;20070;-55
2023/03/10 11:15:18;;;;;;;7.47;2.35;;;;;;;17.79;42.28;96421.78;10208982;28;20070;-55
2023/03/10 11:20:52;;;;;;;2.83;1.88;;;;;;;17.81;42.67;96418.16;10201963;28;20074;-55
2023/03/10 11:26:05;;;;;;;3.33;2.50;;;;;;;17.54;42.73;96386.25;10202697;28;20551;-55
2023/03/10 11:31:12;;;;;;;6.47;2.05;;;;;;;17.78;42.36;96431.44;10201486;28;20133;-56
2023/03/10 11:36:29;;;;;;;4.40;2.30;;;;;;;17.77;42.70;96437.59;10209879;28;20066;-55
2023/03/10 11:41:36;;;;;;;10.43;2.95;;;;;;;17.77;44.88;96448.94;10201404;28;20067;-55
2023/03/10 11:46:50;;;;;;;3.63;2.42;;;;;;;17.66;46.32;96440.75;10216311;28;20129;-56
2023/03/10 11:51:54;;;;;;;5.70;3.20;;;;;;;17.38;47.59;96429.91;10220805;28;20077;-56
2023/03/10 11:56:54;;;;;;;6.65;3.55;;;;;;;17.08;49.48;96433.13;10207894;28;20097;-55
2023/03/10 12:02:09;;;;;;;4.93;2.70;;;;;;;16.75;51.79;96436.41;10212617;28;20078;-56
2023/03/10 12:07:25;;;;;;;4.97;3.10;;;;;;;16.51;52.68;96417.41;10203414;28;20085;-55
2023/03/10 12:12:35;;;;;;;5.18;3.40;;;;;;;16.37;55.02;96396.25;10210753;28;20077;-56
2023/03/10 12:17:36;;;;;;;6.15;3.63;;;;;;;16.27;56.02;96377.50;10207561;28;20069;-55
2023/03/10 12:22:42;;;;;;;6.20;3.60;;;;;;;16.37;56.64;96373.56;10200100;28;20118;-56
2023/03/10 12:28:15;;;;;;;4.70;3.40;;;;;;;16.57;56.86;96364.75;10207416;28;20101;-55
2023/03/10 12:33:29;;;;;;;9.35;5.00;;;;;;;16.79;55.83;96355.88;10215641;28;20061;-55
2023/03/10 12:38:38;;;;;;;6.38;3.78;;;;;;;16.93;55.21;96343.84;10217744;28;20085;-56
2023/03/10 12:44:19;;;;;;;7.22;3.40;;;;;;;16.92;55.18;96342.13;10215337;28;20047;-56
2023/03/10 12:49:42;;;;;;;6.47;3.47;;;;;;;16.73;55.31;96354.41;10216131;28;20457;-55
2023/03/10 12:54:47;;;;;;;7.65;3.40;;;;;;;16.20;56.17;96298.41;10207436;28;20113;-55
2023/03/10 13:00:23;;;;;;;3.67;2.60;;;;;;;16.40;57.82;96322.81;10213977;28;20062;-56
2023/03/10 13:05:32;;;;;;;6.85;3.95;;;;;;;16.36;58.71;96300.31;10207465;28;20109;-56
2023/03/10 13:10:34;;;;;;;9.40;4.30;;;;;;;16.22;58.65;96272.19;10215358;28;20551;-56
2023/03/10 13:15:33;;;;;;;8.25;4.20;;;;;;;16.00;58.28;96248.78;10217271;28;20178;-56
2023/03/10 13:20:35;;;;;;;6.85;3.85;;;;;;;16.15;58.63;96283.84;10212858;28;20082;-56
2023/03/10 13:25:35;;;;;;;7.57;3.92;;;;;;;16.04;58.36;96282.59;10221250;28;20119;-56
2023/03/10 13:30:34;;;;;;;7.45;4.00;;;;;;;16.12;58.51;96281.41;10216387;28;20078;-56
2023/03/10 13:35:36;;;;;;;6.80;3.22;;;;;;;15.83;58.13;96260.88;10207423;28;20101;-55
2023/03/10 13:40:38;;;;;;;5.90;3.10;;;;;;;15.68;57.78;96244.09;10213004;28;20678;-55
2023/03/10 13:45:37;;;;;;;6.85;3.88;;;;;;;15.84;57.91;96236.41;10215799;28;20054;-55
2023/03/10 13:50:36;;;;;;;6.60;3.30;;;;;;;15.55;56.89;96189.78;10213097;28;20081;-55
2023/03/10 13:55:39;;;;;;;6.85;3.55;;;;;;;15.93;57.62;96222.06;10205786;28;20030;-55
2023/03/10 14:00:38;;;;;;;9.48;3.67;;;;;;;15.83;57.93;96215.56;10212520;28;20473;-55
2023/03/10 14:05:44;;;;;;;4.35;3.28;;;;;;;15.64;56.53;96199.84;10220287;28;20081;-56
2023/03/10 14:10:43;;;;;;;6.57;3.30;;;;;;;15.30;55.61;96140.44;10203870;28;20132;-55
2023/03/10 14:15:52;;;;;;;8.75;4.35;;;;;;;15.79;55.33;96182.63;10205134;28;20045;-55
2023/03/10 14:20:51;;;;;;;;;;;;;;;16.02;55.08;96169.31;10214654;28;20311;-56
2023/03/10 14:25:53;;;;;;;15.43;10.37;;;;;;;16.15;54.77;96160.84;10219175;28;19957;-55
2023/03/10 14:30:52;;;;;;;6.20;4.63;;;;;;;15.96;53.90;96092.88;10209049;28;20481;-60
2023/03/10 14:35:51;;;;;;;11.38;6.38;;;;;;;16.37;52.81;96152.78;10218080;28;20114;-59
2023/03/10 14:40:53;;;;;;;10.02;6.18;;;;;;;16.21;52.32;96178.88;10208455;28;20039;-56
2023/03/10 14:45:55;;;;;;;9.07;6.07;;;;;;;15.89;52.57;96189.13;10202672;28;20548;-55
2023/03/10 14:50:54;;;;;;;4.82;2.95;;;;;;;15.82;52.73;96195.56;10208019;28;20121;-55
2023/03/10 14:55:56;;;;;;;6.20;3.90;;;;;;;15.73;51.66;96188.09;10204007;28;20129;-55
2023/03/10 15:00:54;;;;;;;6.18;3.60;;;;;;;15.65;53.11;96207.63;10207720;28;20121;-55
2023/03/10 15:05:53;;;;;;;6.97;3.95;;;;;;;15.53;56.06;96234.34;10202514;28;20046;-55
2023/03/10 15:10:52;;;;;;;6.63;3.65;;;;;;;14.98;65.81;96260.25;10207152;28;20069;-55
2023/03/10 15:15:52;;;;;;;;;;;;;;;13.91;75.31;96289.72;10216120;28;20129;-55
2023/03/10 15:20:50;;;;;;;7.13;4.90;;;;;;;13.18;80.87;96298.41;10208661;28;20001;-56
2023/03/10 15:25:50;;;;;;;;;;;;;;;12.82;83.19;96295.31;10216224;28;20101;-54
2023/03/10 15:30:49;;;;;;;12.90;8.48;;;;;;;12.51;85.86;96302.38;10202897;28;20339;-54
2023/03/10 15:35:48;;;;;;;;;;;;;;;12.29;87.59;96323.00;10203262;28;20089;-54
2023/03/10 15:40:47;;;;;;;11.23;7.55;;;;;;;12.22;88.07;96311.03;10205340;28;20021;-55
2023/03/10 15:45:48;;;;;;;14.00;9.55;;;;;;;12.03;90.37;96289.09;10214250;28;20058;-54
2023/03/10 15:50:47;;;;;;;13.90;7.82;;;;;;;11.54;91.88;96260.22;10207164;28;20977;-54
2023/03/10 15:55:47;;;;;;;14.27;8.45;;;;;;;11.87;93.52;96315.53;10200830;28;20484;-54
2023/03/10 16:00:46;;;;;;;17.27;11.63;;;;;;;11.92;94.16;96280.78;10207201;28;20066;-54
2023/03/10 16:05:47;;;;;;;31.70;21.35;;;;;;;11.76;94.50;96218.88;10204816;28;20122;-54
2023/03/10 16:10:53;;;;;;;19.98;12.93;;;;;;;11.51;95.83;96194.53;10216541;28;20081;-54
2023/03/10 16:15:52;;;;;;;19.15;10.82;;;;;;;11.23;96.65;96161.56;10222614;28;20125;-55
2023/03/10 16:20:58;;;;;;;16.65;9.95;;;;;;;11.29;96.21;96166.59;10212832;28;20141;-55
2023/03/10 16:26:24;;;;;;;12.95;8.82;;;;;;;11.43;95.71;96167.03;10220477;28;20118;-55
2023/03/10 16:31:25;;;;;;;44.38;31.60;;;;;;;11.44;94.78;96145.34;10207891;28;20902;-55
2023/03/10 16:36:26;;;;;;;12.90;8.93;;;;;;;11.44;94.62;96121.13;10229407;28;20540;-56
2023/03/10 16:41:27;;;;;;;99.95;63.78;;;;;;;11.49;94.15;96115.78;10218456;28;20193;-55
2023/03/10 16:46:29;;;;;;;17.65;12.55;;;;;;;11.54;93.00;96134.66;10214362;28;20094;-56
2023/03/10 16:51:36;;;;;;;21.08;18.98;;;;;;;11.59;91.29;96148.38;10227951;28;20064;-55
2023/03/10 16:56:39;;;;;;;11.77;10.45;;;;;;;11.66;91.89;96139.47;10220381;28;20158;-55
2023/03/10 17:01:38;;;;;;;31.80;22.15;;;;;;;11.65;91.22;96114.41;10213058;28;20524;-55
2023/03/10 17:06:37;;;;;;;;;;;;;;;11.66;90.79;96116.94;10207403;28;20494;-55
2023/03/10 17:11:49;;;;;;;20.60;17.60;;;;;;;11.78;90.90;96118.31;10213943;28;20022;-55
2023/03/10 17:16:48;;;;;;;13.77;10.88;;;;;;;11.86;90.17;96118.91;10207135;28;20127;-55
2023/03/10 17:21:48;;;;;;;;;;;;;;;11.97;89.26;96109.91;10213234;28;20539;-55
2023/03/10 17:26:47;;;;;;;29.27;20.92;;;;;;;12.05;88.29;96121.75;10206300;28;20009;-55
2023/03/10 17:31:49;;;;;;;;;;;;;;;12.10;88.28;96126.81;10213233;28;20074;-55
2023/03/10 17:36:50;;;;;;;11.98;8.30;;;;;;;12.11;85.09;96128.53;10208143;28;19961;-55
2023/03/10 17:41:49;;;;;;;17.40;12.85;;;;;;;12.28;85.15;96125.38;10212647;28;20125;-55
2023/03/10 17:46:49;;;;;;;12.23;9.05;;;;;;;12.22;83.20;96104.75;10206338;28;20081;-55
2023/03/10 17:51:48;;;;;;;22.70;16.55;;;;;;;12.45;81.97;96115.22;10206178;28;20069;-55
2023/03/10 17:56:48;;;;;;;22.35;19.33;;;;;;;12.51;80.98;96116.78;10203655;28;20030;-55
2023/03/10 18:01:48;;;;;;;26.80;18.38;;;;;;;12.35;80.58;96089.63;10206237;28;20536;-55
2023/03/10 18:06:47;;;;;;;17.73;10.25;;;;;;;12.62;79.50;96108.59;10204992;28;20138;-55
2023/03/10 18:11:46;;;;;;;;;;;;;;;12.65;78.47;96117.16;10211963;28;20122;-56
2023/03/10 18:16:45;;;;;;;13.45;10.45;;;;;;;12.79;78.17;96097.56;10203053;28;19918;-56
2023/03/10 18:21:44;;;;;;;11.98;8.98;;;;;;;12.63;77.94;96056.50;10212016;28;20074;-57
2023/03/10 18:26:44;;;;;;;;;;;;;;;12.81;77.69;96044.53;10207114;28;20469;-57
2023/03/10 18:31:42;;;;;;;10.88;8.38;;;;;;;12.51;77.68;96031.78;10210502;28;19949;-56
2023/03/10 18:36:41;;;;;;;9.18;6.07;;;;;;;12.25;78.08;96017.09;10207114;28;20046;-56
2023/03/10 18:41:40;;;;;;;;;;;;;;;12.69;77.05;96082.28;10209964;28;20611;-56
2023/03/10 18:46:39;;;;;;;11.30;9.98;;;;;;;12.81;76.78;96074.94;10203902;28;20452;-57
2023/03/10 18:51:38;;;;;;;;;;;;;;;12.85;74.94;96066.97;10213089;28;20150;-56
2023/03/10 18:56:37;;;;;;;10.13;5.90;;;;;;;12.97;74.87;96059.59;10202449;28;19922;-57
2023/03/10 19:01:36;;;;;;;;;;;;;;;13.03;74.73;96030.75;10210144;28;20450;-55
2023/03/10 19:06:35;;;;;;;10.48;6.88;;;;;;;12.88;74.24;95990.50;10217743;28;19976;-55
2023/03/10 19:11:36;;;;;;;16.40;10.02;;;;;;;12.91;75.53;96009.47;10209337;28;20102;-56
2023/03/10 19:16:38;;;;;;;16.02;12.23;;;;;;;12.78;76.12;95999.56;10222263;28;20078;-56
2023/03/10 19:21:37;;;;;;;25.85;18.20;;;;;;;12.62;76.70;96007.09;10209193;28;20070;-56
2023/03/10 19:26:37;;;;;;;21.52;16.63;;;;;;;12.20;77.44;95959.16;10216919;28;20477;-55
2023/03/10 19:31:36;;;;;;;14.20;10.20;;;;;;;12.11;78.62;95988.13;10207103;28;20085;-56
2023/03/10 19:36:35;;;;;;;11.70;7.10;;;;;;;11.96;77.64;95984.28;10263779;28;20275;-55
2023/03/10 19:41:33;;;;;;;7.65;6.20;;;;;;;12.06;77.57;95956.22;10247206;28;20142;-55
2023/03/10 19:46:32;;;;;;;12.85;9.15;;;;;;;12.20;77.13;95966.13;10253528;28;20049;-55
2023/03/10 19:51:31;;;;;;;;;;;;;;;12.04;77.78;95940.69;10247344;28;20061;-55
2023/03/10 19:56:30;;;;;;;6.57;5.32;;;;;;;11.84;77.17;95904.16;10254217;28;19914;-55
2023/03/10 20:01:29;;;;;;;10.60;8.02;;;;;;;11.88;78.66;95900.56;10246888;28;20558;-55
2023/03/10 20:06:28;;;;;;;12.80;8.43;;;;;;;12.02;78.13;95924.28;10238822;28;20053;-55
2023/03/10 20:11:27;;;;;;;12.80;9.25;;;;;;;11.65;78.44;95870.19;10246563;28;20050;-55
2023/03/10 20:16:26;;;;;;;29.02;19.02;;;;;;;11.72;79.45;95910.63;10254597;28;20277;-55
2023/03/10 20:21:26;;;;;;;17.08;12.30;;;;;;;11.57;79.24;95903.38;10247231;28;20425;-55
2023/03/10 20:26:25;;;;;;;8.85;6.63;;;;;;;11.77;76.95;95882.72;10253145;28;20134;-55
2023/03/10 20:31:25;;;;;;;19.60;11.95;;;;;;;11.58;77.93;95840.13;10246452;28;20129;-55
2023/03/10 20:36:23;;;;;;;15.88;10.55;;;;;;;11.03;77.89;95791.84;10261375;28;20484;-55
2023/03/10 20:41:23;;;;;;;34.15;28.80;;;;;;;11.76;78.47;95927.81;10241878;28;20811;-55
2023/03/10 20:46:23;;;;;;;;;;;;;;;11.71;78.17;95960.03;10249900;28;20125;-55
2023/03/10 20:51:22;;;;;;;30.20;19.83;;;;;;;11.72;79.41;95962.59;10246935;28;20020;-55
2023/03/10 20:56:21;;;;;;;13.18;8.68;;;;;;;12.05;80.47;96001.31;10261542;28;20125;-55
2023/03/10 21:01:20;;;;;;;7.88;5.88;;;;;;;12.01;83.81;95969.38;10252747;28;20041;-56
2023/03/10 21:06:25;;;;;;;8.13;5.82;;;;;;;11.82;85.88;95903.34;10260788;28;20133;-55
2023/03/10 21:11:24;;;;;;;8.68;6.43;;;;;;;11.74;87.12;95913.19;10253976;28;20074;-55
2023/03/10 21:16:23;;;;;;;5.07;3.90;;;;;;;11.56;86.58;95883.50;10261668;28;20323;-55
2023/03/10 21:21:22;;;;;;;5.88;3.88;;;;;;;11.51;86.15;95898.41;10253626;28;20042;-55
2023/03/10 21:26:21;;;;;;;6.30;3.83;;;;;;;11.46;87.89;95860.44;10248134;28;20066;-55
2023/03/10 21:31:20;;;;;;;6.50;4.10;;;;;;;11.42;88.37;95845.84;10253152;28;20583;-55
2023/03/10 21:36:22;;;;;;;7.20;4.55;;;;;;;11.49;87.42;95835.25;10268451;28;20139;-55
2023/03/10 21:41:25;;;;;;;13.15;10.65;;;;;;;11.57;86.51;95813.31;10260674;28;20457;-55
2023/03/10 21:46:24;;;;;;;10.90;7.78;;;;;;;11.65;85.52;95795.69;10259237;28;20073;-55
2023/03/10 21:51:24;;;;;;;15.75;11.25;;;;;;;11.75;84.32;95779.75;10253087;28;20169;-55
2023/03/10 21:56:24;;;;;;;18.20;13.20;;;;;;;11.78;84.16;95811.69;10245036;28;20070;-55
2023/03/10 22:01:24;;;;;;;13.00;7.80;;;;;;;11.72;84.40;95811.91;10253148;28;20080;-55
2023/03/10 22:06:23;;;;;;;10.40;7.82;;;;;;;11.77;83.88;95822.97;10242217;28;20125;-55
2023/03/10 22:11:22;;;;;;;15.95;13.48;;;;;;;11.69;83.39;95783.44;10250957;28;20025;-55
2023/03/10 22:16:21;;;;;;;14.93;12.85;;;;;;;12.06;81.80;95810.63;10245248;28;20084;-55
2023/03/10 22:21:20;;;;;;;8.00;5.97;;;;;;;12.16;81.47;95803.31;10251612;28;20054;-56
2023/03/10 22:26:19;;;;;;;;;;;;;;;12.33;81.34;95823.53;10243804;28;20382;-56
2023/03/10 22:31:19;;;;;;;8.13;6.95;;;;;;;12.28;80.71;95806.34;10250219;28;20075;-56
2023/03/10 22:36:18;;;;;;;93.40;56.42;;;;;;;12.13;80.78;95826.84;10247884;28;20064;-56
2023/03/10 22:41:17;;;;;;;;;;;;;;;11.87;82.09;95858.09;10250931;28;20034;-56
2023/03/10 22:46:16;;;;;;;21.58;12.60;;;;;;;11.99;82.13;95871.56;10242682;28;20388;-56
2023/03/10 22:51:16;;;;;;;;;;;;;;;11.97;82.86;95878.56;10251341;28;20066;-56
2023/03/10 22:56:15;;;;;;;;;;;;;;;11.98;83.18;95859.47;10242922;28;20012;-56
2023/03/10 23:01:14;;;;;;;13.80;9.50;;;;;;;12.02;84.42;95820.31;10262490;28;19943;-56
2023/03/10 23:06:13;;;;;;;11.00;7.30;;;;;;;11.87;84.81;95810.47;10242207;28;20488;-56
2023/03/10 23:11:13;;;;;;;;;;;;;;;11.98;85.12;95808.31;10249994;28;20102;-56
2023/03/10 23:16:12;;;;;;;14.55;7.88;;;;;;;12.14;84.71;95803.41;10237462;28;20008;-55
2023/03/10 23:21:11;;;;;;;;;;;;;;;12.18;84.57;95809.31;10236311;28;20470;-55
2023/03/10 23:26:10;;;;;;;14.52;11.02;;;;;;;12.12;85.24;95791.38;10235945;28;20465;-55